createdAt,value
2022-10-31T00:01:29.675Z,75.13
2022-10-31T00:03:57.236Z,70.57
2022-10-31T00:06:24.957Z,73.13
2022-10-31T00:08:54.189Z,74.47
2022-10-31T00:11:21.819Z,63.53
2022-10-31T00:13:51.082Z,66.27
2022-10-31T00:16:19.395Z,69.50
2022-10-31T00:18:49.545Z,62.57
2022-10-31T00:21:17.202Z,62.43
2022-10-31T00:23:44.886Z,54.67
2022-10-31T00:26:12.553Z,73.00
2022-10-31T00:28:40.051Z,60.03
2022-10-31T00:31:09.949Z,62.10
2022-10-31T00:33:38.542Z,67.27
2022-10-31T00:36:07.019Z,59.50
2022-10-31T00:38:34.684Z,57.33
2022-10-31T00:41:02.238Z,63.63
2022-10-31T00:43:29.718Z,54.83
2022-10-31T00:45:57.467Z,53.80
2022-10-31T00:48:27.229Z,50.60
2022-10-31T00:50:55.230Z,61.93
2022-10-31T00:53:23.892Z,54.33
2022-10-31T00:55:51.493Z,57.83
2022-10-31T00:58:19.078Z,64.57
2022-10-31T01:00:51.132Z,59.97
2022-10-31T01:03:19.712Z,57.03
2022-10-31T01:05:56.621Z,51.23
2022-10-31T01:08:24.151Z,48.33
2022-10-31T01:10:59.848Z,51.83
2022-10-31T01:13:27.471Z,57.37
2022-10-31T01:15:55.708Z,51.37
2022-10-31T01:18:23.377Z,56.10
2022-10-31T01:21:00.218Z,62.40
2022-10-31T01:23:28.696Z,49.93
2022-10-31T01:26:07.175Z,55.80
2022-10-31T01:28:35.656Z,54.53
2022-10-31T01:31:03.843Z,59.50
2022-10-31T01:33:31.627Z,48.23
2022-10-31T01:36:01.675Z,56.20
2022-10-31T01:38:29.373Z,54.40
2022-10-31T01:40:56.896Z,59.10
2022-10-31T01:43:24.474Z,54.87
2022-10-31T01:45:54.916Z,59.53
2022-10-31T01:48:26.295Z,52.93
2022-10-31T01:50:55.902Z,54.63
2022-10-31T01:53:26.978Z,52.63
2022-10-31T01:55:55.083Z,58.83
2022-10-31T01:58:24.769Z,55.77
2022-10-31T02:00:56.204Z,55.97
2022-10-31T02:03:24.112Z,55.70
2022-10-31T02:05:52.033Z,53.87
2022-10-31T02:08:27.522Z,54.83
2022-10-31T02:10:55.984Z,55.63
2022-10-31T02:15:55.248Z,47.73
2022-10-31T02:18:23.780Z,57.30
2022-10-31T02:20:57.078Z,50.37
2022-10-31T02:23:43.057Z,47.67
2022-10-31T02:26:21.993Z,56.93
2022-10-31T02:28:59.449Z,53.90
2022-10-31T02:31:33.276Z,54.73
2022-10-31T02:34:03.036Z,51.30
2022-10-31T02:36:34.173Z,58.63
2022-10-31T02:39:04.328Z,54.47
2022-10-31T02:41:44.318Z,47.20
2022-10-31T02:44:17.852Z,50.80
2022-10-31T02:46:50.124Z,54.73
2022-10-31T02:49:24.096Z,50.90
2022-10-31T02:51:53.733Z,49.93
2022-10-31T02:54:23.030Z,48.70
2022-10-31T02:56:55.621Z,48.30
2022-10-31T02:59:23.885Z,48.07
2022-10-31T03:01:59.792Z,55.43
2022-10-31T03:04:46.236Z,53.60
2022-10-31T03:07:22.292Z,54.20
2022-10-31T03:09:54.668Z,49.77
2022-10-31T03:12:28.021Z,52.73
2022-10-31T03:14:58.484Z,50.83
2022-10-31T03:17:29.240Z,51.63
2022-10-31T03:19:57.655Z,57.77
2022-10-31T03:22:30.013Z,49.03
2022-10-31T03:25:00.030Z,53.50
2022-10-31T03:27:28.564Z,42.33
2022-10-31T03:29:57.729Z,50.00
2022-10-31T03:32:26.752Z,56.47
2022-10-31T03:34:58.612Z,42.73
2022-10-31T03:37:27.916Z,45.83
2022-10-31T03:39:56.801Z,53.00
2022-10-31T03:42:26.458Z,49.43
2022-10-31T03:44:55.747Z,46.50
2022-10-31T03:47:23.455Z,40.60
2022-10-31T03:49:51.390Z,46.63
2022-10-31T03:52:26.468Z,48.70
2022-10-31T03:54:59.192Z,47.17
2022-10-31T03:57:35.728Z,39.53
2022-10-31T04:00:06.892Z,42.57
2022-10-31T04:02:48.616Z,42.37
2022-10-31T04:05:17.478Z,41.17
2022-10-31T04:07:48.713Z,42.27
2022-10-31T04:10:17.846Z,41.27
2022-10-31T04:12:47.507Z,42.00
2022-10-31T04:15:21.467Z,42.97
2022-10-31T04:17:49.518Z,33.40
2022-10-31T04:20:19.086Z,42.90
2022-10-31T04:22:48.545Z,45.63
2022-10-31T04:25:16.024Z,47.20
2022-10-31T04:27:43.735Z,42.90
2022-10-31T04:30:11.927Z,38.50
2022-10-31T04:32:41.730Z,47.93
2022-10-31T04:35:09.413Z,42.90
2022-10-31T04:37:37.208Z,36.53
2022-10-31T04:40:06.976Z,43.00
2022-10-31T04:42:43.851Z,46.57
2022-10-31T04:45:15.451Z,45.73
2022-10-31T04:47:46.460Z,50.73
2022-10-31T04:50:13.995Z,49.00
2022-10-31T04:52:41.807Z,42.03
2022-10-31T04:55:12.961Z,34.13
2022-10-31T04:57:47.266Z,44.77
2022-10-31T05:00:16.739Z,40.27
2022-10-31T05:02:46.087Z,44.13
2022-10-31T05:05:14.137Z,43.33
2022-10-31T05:07:42.786Z,53.50
2022-10-31T05:10:12.927Z,48.97
2022-10-31T05:12:47.409Z,37.93
2022-10-31T05:15:35.289Z,48.40
2022-10-31T05:18:21.680Z,49.97
2022-10-31T05:21:11.739Z,41.23
2022-10-31T05:23:48.407Z,43.97
2022-10-31T05:26:19.312Z,48.97
2022-10-31T05:28:48.777Z,43.10
2022-10-31T05:31:17.085Z,44.70
2022-10-31T05:33:44.918Z,42.53
2022-10-31T05:36:31.314Z,48.70
2022-10-31T05:39:05.043Z,53.60
2022-10-31T05:41:42.325Z,52.27
2022-10-31T05:44:16.068Z,43.77
2022-10-31T05:46:55.601Z,41.57
2022-10-31T05:49:32.215Z,45.90
2022-10-31T05:52:19.156Z,53.30
2022-10-31T05:54:54.563Z,46.23
2022-10-31T05:57:23.697Z,41.60
2022-10-31T05:59:55.085Z,49.30
2022-10-31T06:02:24.547Z,41.67
2022-10-31T06:05:12.136Z,47.83
2022-10-31T06:07:40.156Z,46.53
2022-10-31T06:10:09.432Z,44.27
2022-10-31T06:12:39.345Z,45.73
2022-10-31T06:15:23.448Z,42.03
2022-10-31T06:17:59.475Z,47.30
2022-10-31T06:20:28.504Z,51.67
2022-10-31T06:23:02.341Z,45.37
2022-10-31T06:25:32.442Z,50.90
2022-10-31T06:28:01.647Z,49.50
2022-10-31T06:30:43.129Z,45.73
2022-10-31T06:33:11.950Z,46.03
2022-10-31T06:35:47.228Z,49.40
2022-10-31T06:38:14.809Z,44.43
2022-10-31T06:40:43.943Z,47.30
2022-10-31T06:43:39.556Z,46.97
2022-10-31T06:46:35.176Z,49.30
2022-10-31T06:49:26.718Z,46.33
2022-10-31T06:51:56.383Z,53.43
2022-10-31T06:54:24.774Z,53.43
2022-10-31T06:56:52.458Z,45.80
2022-10-31T06:59:22.380Z,45.90
2022-10-31T07:02:11.177Z,48.60
2022-10-31T07:04:40.115Z,56.00
2022-10-31T07:07:09.203Z,57.13
2022-10-31T07:09:38.852Z,44.63
2022-10-31T07:12:07.157Z,45.33
2022-10-31T07:14:40.408Z,45.23
2022-10-31T07:17:08.157Z,42.47
2022-10-31T07:19:40.352Z,47.03
2022-10-31T07:22:07.935Z,45.70
2022-10-31T07:24:36.387Z,46.77
2022-10-31T07:27:23.194Z,51.43
2022-10-31T07:29:52.281Z,48.23
2022-10-31T07:32:19.736Z,51.93
2022-10-31T07:34:53.487Z,39.23
2022-10-31T07:37:29.063Z,43.67
2022-10-31T07:39:58.560Z,46.47
2022-10-31T07:42:26.131Z,44.80
2022-10-31T07:44:57.613Z,47.87
2022-10-31T07:47:44.816Z,42.07
2022-10-31T07:50:34.732Z,41.80
2022-10-31T07:53:31.340Z,39.53
2022-10-31T07:56:12.551Z,39.93
2022-10-31T07:58:42.016Z,38.53
2022-10-31T08:03:53.922Z,41.57
2022-10-31T08:06:40.656Z,43.23
2022-10-31T08:09:26.407Z,41.23
2022-10-31T08:11:55.260Z,46.33
2022-10-31T08:14:23.359Z,53.60
2022-10-31T08:16:55.763Z,45.80
2022-10-31T08:19:29.190Z,47.67
2022-10-31T08:21:57.406Z,45.93
2022-10-31T08:24:24.940Z,52.70
2022-10-31T08:26:54.542Z,57.00
2022-10-31T08:29:22.906Z,48.90
2022-10-31T08:31:51.057Z,48.93
2022-10-31T08:34:38.994Z,52.47
2022-10-31T08:37:33.721Z,52.50
2022-10-31T08:40:01.700Z,55.37
2022-10-31T08:42:34.122Z,51.70
2022-10-31T08:45:02.124Z,46.87
2022-10-31T08:47:31.037Z,57.97
2022-10-31T08:50:00.749Z,56.50
2022-10-31T08:52:51.219Z,57.87
2022-10-31T08:55:16.061Z,53.70
2022-10-31T08:58:03.720Z,45.60
2022-10-31T09:00:40.057Z,55.27
2022-10-31T09:03:15.243Z,46.63
2022-10-31T09:05:45.331Z,46.87
2022-10-31T09:08:16.690Z,52.70
2022-10-31T09:10:47.467Z,51.40
2022-10-31T09:13:19.993Z,54.93
2022-10-31T09:16:26.596Z,48.13
2022-10-31T09:19:10.219Z,39.70
2022-10-31T09:21:39.189Z,44.60
2022-10-31T09:24:07.292Z,50.90
2022-10-31T09:26:35.148Z,43.53
2022-10-31T09:29:11.572Z,52.50
2022-10-31T09:31:44.677Z,42.73
2022-10-31T09:34:28.620Z,44.77
2022-10-31T09:37:04.966Z,46.40
2022-10-31T09:39:35.706Z,45.23
2022-10-31T09:42:18.377Z,55.53
2022-10-31T09:44:51.839Z,44.10
2022-10-31T09:47:39.662Z,45.70
2022-10-31T09:50:31.233Z,49.07
2022-10-31T09:53:16.088Z,46.93
2022-10-31T09:55:45.140Z,49.03
2022-10-31T09:58:17.261Z,53.17
2022-10-31T10:00:46.829Z,48.10
2022-10-31T10:03:22.243Z,52.20
2022-10-31T10:05:56.253Z,54.67
2022-10-31T10:08:37.300Z,54.90
2022-10-31T10:11:30.615Z,57.07
2022-10-31T10:14:18.842Z,61.33
2022-10-31T10:16:55.540Z,58.27
2022-10-31T10:19:30.057Z,49.93
2022-10-31T10:22:03.156Z,48.17
2022-10-31T10:24:35.573Z,47.27
2022-10-31T10:27:07.718Z,51.67
2022-10-31T10:29:38.281Z,47.43
2022-10-31T10:32:10.224Z,58.90
2022-10-31T10:34:41.017Z,48.80
2022-10-31T10:37:14.682Z,54.13
2022-10-31T10:39:44.130Z,52.03
2022-10-31T10:42:31.404Z,55.47
2022-10-31T10:45:17.077Z,51.27
2022-10-31T10:47:45.445Z,49.07
2022-10-31T10:50:17.760Z,47.00
2022-10-31T10:52:52.083Z,39.50
2022-10-31T10:55:26.557Z,45.70
2022-10-31T10:57:58.016Z,49.23
2022-10-31T11:00:26.748Z,54.10
2022-10-31T11:02:54.772Z,54.17
2022-10-31T11:05:26.197Z,53.40
2022-10-31T11:07:55.208Z,151.03
2022-10-31T11:10:22.698Z,49.43
2022-10-31T11:13:01.096Z,102.87
2022-10-31T11:15:29.436Z,149.23
2022-10-31T11:17:57.956Z,51.07
2022-10-31T11:20:31.127Z,67.47
2022-10-31T11:23:18.250Z,66.67
2022-10-31T11:25:53.394Z,67.97
2022-10-31T11:28:21.122Z,51.17
2022-10-31T11:30:50.037Z,50.07
2022-10-31T11:33:19.600Z,49.30
2022-10-31T11:35:48.413Z,53.67
2022-10-31T11:38:21.424Z,59.37
2022-10-31T11:40:56.806Z,63.30
2022-10-31T11:43:25.042Z,43.20
2022-10-31T11:45:52.826Z,46.43
2022-10-31T11:48:21.751Z,52.50
2022-10-31T11:50:50.620Z,47.23
2022-10-31T11:53:19.674Z,47.27
2022-10-31T11:56:06.636Z,46.70
2022-10-31T11:58:34.207Z,46.77
2022-10-31T12:01:01.726Z,43.37
2022-10-31T12:03:35.532Z,43.00
2022-10-31T12:06:05.585Z,52.57
2022-10-31T12:08:33.899Z,53.87
2022-10-31T12:11:06.397Z,54.67
2022-10-31T12:13:35.838Z,43.43
2022-10-31T12:16:07.850Z,43.37
2022-10-31T12:18:43.500Z,49.23
2022-10-31T12:21:17.814Z,47.27
2022-10-31T12:23:50.481Z,46.30
2022-10-31T12:26:23.710Z,51.57
2022-10-31T12:29:00.132Z,43.33
2022-10-31T12:31:35.195Z,46.63
2022-10-31T12:34:13.740Z,57.07
2022-10-31T12:36:49.529Z,54.00
2022-10-31T12:39:31.538Z,57.03
2022-10-31T12:42:04.604Z,62.13
2022-10-31T12:44:47.096Z,80.40
2022-10-31T12:47:24.949Z,111.40
2022-10-31T12:49:56.245Z,71.73
2022-10-31T12:52:33.787Z,116.53
2022-10-31T12:55:08.779Z,77.37
2022-10-31T12:57:40.246Z,90.23
2022-10-31T13:00:13.100Z,170.83
2022-10-31T13:02:42.305Z,99.20
2022-10-31T13:05:14.860Z,69.90
2022-10-31T13:07:45.265Z,57.83
2022-10-31T13:10:18.262Z,62.10
2022-10-31T13:12:48.728Z,150.73
2022-10-31T13:15:18.065Z,110.50
2022-10-31T13:17:47.353Z,77.30
2022-10-31T13:20:20.150Z,52.70
2022-10-31T13:22:49.532Z,53.00
2022-10-31T13:25:17.749Z,88.70
2022-10-31T13:27:50.268Z,78.37
2022-10-31T13:30:19.004Z,74.63
2022-10-31T13:32:49.590Z,61.97
2022-10-31T13:35:20.437Z,54.47
2022-10-31T13:37:54.633Z,68.00
2022-10-31T13:40:27.014Z,64.70
2022-10-31T13:42:59.672Z,58.27
2022-10-31T13:45:28.275Z,60.30
2022-10-31T13:48:00.036Z,66.63
2022-10-31T13:50:29.692Z,63.50
2022-10-31T13:53:14.092Z,56.40
2022-10-31T13:55:43.099Z,61.27
2022-10-31T13:58:24.030Z,59.93
2022-10-31T14:01:04.408Z,64.30
2022-10-31T14:04:02.135Z,70.60
2022-10-31T14:06:20.856Z,71.43
2022-10-31T14:08:50.147Z,62.67
2022-10-31T14:11:22.896Z,71.53
2022-10-31T14:13:51.919Z,81.50
2022-10-31T14:16:22.580Z,72.27
2022-10-31T14:18:52.418Z,76.03
2022-10-31T14:21:29.313Z,74.87
2022-10-31T14:23:57.603Z,64.83
2022-10-31T14:26:38.035Z,73.67
2022-10-31T14:29:25.610Z,74.03
2022-10-31T14:31:56.175Z,82.40
2022-10-31T14:34:28.810Z,63.40
2022-10-31T14:37:16.284Z,66.73
2022-10-31T14:39:49.512Z,73.20
2022-10-31T14:42:25.686Z,69.40
2022-10-31T14:45:10.300Z,71.70
2022-10-31T14:47:44.108Z,69.30
2022-10-31T14:50:26.550Z,66.00
2022-10-31T14:52:56.665Z,73.20
2022-10-31T14:55:25.253Z,73.57
2022-10-31T14:57:54.565Z,85.47
2022-10-31T15:00:23.609Z,69.77
2022-10-31T15:02:58.885Z,74.07
2022-10-31T15:05:29.073Z,73.60
2022-10-31T15:07:57.778Z,77.67
2022-10-31T15:10:26.804Z,77.93
2022-10-31T15:12:54.936Z,88.63
2022-10-31T15:15:23.837Z,82.93
2022-10-31T15:17:54.603Z,109.00
2022-10-31T15:20:24.361Z,100.93
2022-10-31T15:22:52.321Z,92.80
2022-10-31T15:25:21.188Z,99.30
2022-10-31T15:27:50.208Z,99.03
2022-10-31T15:30:19.111Z,97.53
2022-10-31T15:32:57.213Z,105.77
2022-10-31T15:35:27.643Z,108.80
2022-10-31T15:37:55.330Z,110.13
2022-10-31T15:40:24.973Z,103.63
2022-10-31T15:42:53.613Z,113.73
2022-10-31T15:45:23.244Z,123.40
2022-10-31T15:47:55.555Z,124.30
2022-10-31T15:50:25.345Z,113.13
2022-10-31T15:52:54.478Z,109.37
2022-10-31T15:55:23.467Z,110.77
2022-10-31T15:57:52.284Z,114.67
2022-10-31T16:00:24.360Z,108.60
2022-10-31T16:02:52.089Z,118.67
2022-10-31T16:05:20.981Z,113.80
2022-10-31T16:07:50.791Z,113.23
2022-10-31T16:10:29.123Z,113.77
2022-10-31T16:12:56.863Z,102.43
2022-10-31T16:15:24.452Z,106.70
2022-10-31T16:17:54.870Z,109.40
2022-10-31T16:20:28.293Z,109.03
2022-10-31T16:22:57.090Z,113.27
2022-10-31T16:25:27.850Z,111.13
2022-10-31T16:28:00.971Z,113.90
2022-10-31T16:30:34.271Z,108.40
2022-10-31T16:33:03.229Z,109.57
2022-10-31T16:35:34.552Z,118.60
2022-10-31T16:38:02.446Z,116.33
2022-10-31T16:40:30.170Z,115.40
2022-10-31T16:43:00.354Z,119.33
2022-10-31T16:45:29.749Z,127.20
2022-10-31T16:48:03.685Z,127.77
2022-10-31T16:50:31.649Z,140.27
2022-10-31T16:53:15.176Z,148.07
2022-10-31T16:55:47.219Z,118.53
2022-10-31T16:58:22.689Z,136.20
2022-10-31T17:00:50.407Z,127.70
2022-10-31T17:03:18.592Z,133.40
2022-10-31T17:05:46.239Z,124.87
2022-10-31T17:08:13.777Z,140.63
2022-10-31T17:10:42.167Z,144.53
2022-10-31T17:13:15.661Z,128.40
2022-10-31T17:15:46.342Z,119.80
2022-10-31T17:18:14.325Z,137.70
2022-10-31T17:20:42.183Z,120.10
2022-10-31T17:23:10.634Z,126.10
2022-10-31T17:25:38.166Z,127.57
2022-10-31T17:28:06.050Z,127.50
2022-10-31T17:30:34.371Z,134.60
2022-10-31T17:33:03.684Z,155.57
2022-10-31T17:35:31.867Z,129.17
2022-10-31T17:37:59.352Z,127.93
2022-10-31T17:40:27.082Z,111.53
2022-10-31T17:42:55.805Z,108.27
2022-10-31T17:45:24.298Z,127.50
2022-10-31T17:47:52.701Z,113.70
2022-10-31T17:53:09.301Z,114.77
2022-10-31T17:55:37.681Z,119.60
2022-10-31T17:58:05.748Z,126.47
2022-10-31T18:00:33.378Z,121.60
2022-10-31T18:03:02.809Z,121.13
2022-10-31T18:05:32.035Z,122.80
2022-10-31T18:08:03.868Z,117.03
2022-10-31T18:10:32.509Z,125.10
2022-10-31T18:13:00.503Z,126.40
2022-10-31T18:15:29.523Z,126.10
2022-10-31T18:17:57.221Z,127.03
2022-10-31T18:20:24.809Z,128.10
2022-10-31T18:22:53.691Z,143.70
2022-10-31T18:25:21.408Z,117.00
2022-10-31T18:27:48.930Z,121.17
2022-10-31T18:30:18.016Z,117.60
2022-10-31T18:32:45.659Z,149.67
2022-10-31T18:35:13.315Z,203.60
2022-10-31T18:37:40.856Z,131.03
2022-10-31T18:40:10.591Z,136.17
2022-10-31T18:42:38.647Z,122.17
2022-10-31T18:45:11.875Z,124.63
2022-10-31T18:47:54.565Z,117.70
2022-10-31T18:50:22.154Z,119.70
2022-10-31T18:52:49.736Z,119.40
2022-10-31T18:55:18.589Z,116.10
2022-10-31T18:57:46.577Z,110.20
2022-10-31T19:00:14.960Z,117.00
2022-10-31T19:02:42.538Z,127.30
2022-10-31T19:05:10.251Z,120.90
2022-10-31T19:07:37.950Z,128.90
2022-10-31T19:10:06.250Z,126.90
2022-10-31T19:12:35.299Z,115.23
2022-10-31T19:15:02.835Z,122.50
2022-10-31T19:17:30.676Z,124.10
2022-10-31T19:19:58.306Z,117.07
2022-10-31T19:22:26.598Z,133.27
2022-10-31T19:24:54.376Z,129.83
2022-10-31T19:27:21.895Z,113.77
2022-10-31T19:29:50.792Z,118.73
2022-10-31T19:32:18.837Z,137.13
2022-10-31T19:34:46.403Z,141.20
2022-10-31T19:37:14.320Z,133.93
2022-10-31T19:39:44.307Z,125.17
2022-10-31T19:42:12.245Z,130.93
2022-10-31T19:44:39.787Z,125.13
2022-10-31T19:47:08.678Z,119.57
2022-10-31T19:49:36.370Z,118.50
2022-10-31T19:52:04.115Z,112.80
2022-10-31T19:54:32.400Z,110.80
2022-10-31T19:56:59.962Z,121.40
2022-10-31T19:59:27.547Z,116.10
2022-10-31T20:01:55.491Z,115.10
2022-10-31T20:04:24.649Z,115.43
2022-10-31T20:06:52.353Z,105.70
2022-10-31T20:09:19.988Z,113.83
2022-10-31T20:11:47.944Z,122.47
2022-10-31T20:14:16.584Z,131.23
2022-10-31T20:16:45.491Z,125.00
2022-10-31T20:19:13.002Z,109.37
2022-10-31T20:21:42.372Z,107.77
2022-10-31T20:24:11.123Z,106.90
2022-10-31T20:26:39.534Z,109.40
2022-10-31T20:29:07.338Z,112.57
2022-10-31T20:31:36.922Z,105.80
2022-10-31T20:34:04.836Z,110.70
2022-10-31T20:36:32.510Z,106.93
2022-10-31T20:39:01.596Z,110.70
2022-10-31T20:41:29.123Z,109.63
2022-10-31T20:43:56.604Z,105.23
2022-10-31T20:46:25.178Z,197.20
2022-10-31T20:48:53.074Z,148.20
2022-10-31T20:51:22.001Z,121.37
2022-10-31T20:53:50.128Z,109.47
2022-10-31T20:56:19.827Z,112.47
2022-10-31T20:58:47.628Z,113.43
2022-10-31T21:01:16.271Z,116.63
2022-10-31T21:03:43.981Z,103.30
2022-10-31T21:06:11.876Z,110.30
2022-10-31T21:08:39.890Z,110.73
2022-10-31T21:11:08.569Z,114.27
2022-10-31T21:13:40.727Z,117.47
2022-10-31T21:16:10.497Z,113.53
2022-10-31T21:18:38.809Z,107.60
2022-10-31T21:21:08.393Z,109.93
2022-10-31T21:23:36.315Z,103.23
2022-10-31T21:26:07.413Z,113.60
2022-10-31T21:28:35.226Z,111.43
2022-10-31T21:31:06.233Z,98.80
2022-10-31T21:33:34.239Z,98.13
2022-10-31T21:36:01.750Z,105.07
2022-10-31T21:38:29.260Z,105.27
2022-10-31T21:41:02.425Z,106.87
2022-10-31T21:43:30.572Z,107.10
2022-10-31T21:46:04.232Z,102.73
2022-10-31T21:48:33.244Z,108.40
2022-10-31T21:51:03.227Z,108.07
2022-10-31T21:53:49.012Z,107.57
2022-10-31T21:56:16.625Z,115.60
2022-10-31T21:58:44.164Z,113.87
2022-10-31T22:01:13.398Z,106.77
2022-10-31T22:03:42.296Z,116.67
2022-10-31T22:06:10.878Z,107.73
2022-10-31T22:08:40.042Z,111.70
2022-10-31T22:11:08.420Z,116.57
2022-10-31T22:13:36.912Z,119.80
2022-10-31T22:16:05.034Z,127.40
2022-10-31T22:18:36.901Z,118.67
2022-10-31T22:21:06.060Z,121.80
2022-10-31T22:23:33.874Z,134.30
2022-10-31T22:26:03.318Z,120.77
2022-10-31T22:28:31.385Z,135.33
2022-10-31T22:30:59.914Z,134.77
2022-10-31T22:33:27.642Z,126.10
2022-10-31T22:35:57.178Z,126.20
2022-10-31T22:38:24.792Z,142.13
2022-10-31T22:40:56.547Z,131.17
2022-10-31T22:43:24.686Z,127.63
2022-10-31T22:45:55.530Z,139.03
2022-10-31T22:48:23.258Z,153.37
2022-10-31T22:50:51.899Z,132.33
2022-10-31T22:53:20.700Z,149.57
2022-10-31T22:55:50.230Z,160.70
2022-10-31T22:58:18.023Z,172.57
2022-10-31T23:00:45.734Z,202.33
2022-10-31T23:03:13.235Z,195.47
2022-10-31T23:05:41.003Z,204.87
2022-10-31T23:08:08.683Z,209.00
2022-10-31T23:10:41.516Z,200.13
2022-10-31T23:13:27.501Z,230.23
2022-10-31T23:15:55.403Z,192.50
2022-10-31T23:18:48.121Z,219.00
2022-10-31T23:21:30.678Z,213.90
2022-10-31T23:23:58.881Z,185.67
2022-10-31T23:26:45.726Z,183.97
2022-10-31T23:29:13.230Z,193.40
2022-10-31T23:31:40.765Z,192.13
2022-10-31T23:34:08.473Z,188.10
2022-10-31T23:36:36.288Z,211.10
2022-10-31T23:39:03.840Z,192.13
2022-10-31T23:41:32.867Z,216.37
2022-10-31T23:44:00.523Z,203.57
2022-10-31T23:46:28.911Z,201.53
2022-10-31T23:48:56.415Z,196.50
2022-10-31T23:51:24.140Z,211.80
2022-10-31T23:53:51.809Z,206.33
2022-10-31T23:56:19.261Z,190.77
2022-10-31T23:58:48.306Z,199.80
